sensor_id;sensor_type;location;lat;lon;timestamp;P1;durP1;ratioP1;P2;durP2;ratioP2
15451;SDS011;7827;53.594;9.938;2022-09-09T00:00:24;64.43;;;35.78;;
15451;SDS011;7827;53.594;9.938;2022-09-09T00:02:55;58.17;;;34.25;;
15451;SDS011;7827;53.594;9.938;2022-09-09T00:05:38;64.43;;;35.70;;
15451;SDS011;7827;53.594;9.938;2022-09-09T00:08:16;65.88;;;36.90;;
15451;SDS011;7827;53.594;9.938;2022-09-09T00:10:50;73.43;;;39.83;;
15451;SDS011;7827;53.594;9.938;2022-09-09T00:13:28;73.22;;;37.53;;
15451;SDS011;7827;53.594;9.938;2022-09-09T00:16:05;76.55;;;40.33;;
15451;SDS011;7827;53.594;9.938;2022-09-09T00:18:47;81.18;;;40.20;;
15451;SDS011;7827;53.594;9.938;2022-09-09T00:21:30;83.88;;;42.75;;
15451;SDS011;7827;53.594;9.938;2022-09-09T00:24:08;81.80;;;41.75;;
15451;SDS011;7827;53.594;9.938;2022-09-09T00:26:53;81.25;;;42.28;;
15451;SDS011;7827;53.594;9.938;2022-09-09T00:29:32;74.43;;;40.60;;
15451;SDS011;7827;53.594;9.938;2022-09-09T00:32:11;75.53;;;41.55;;
15451;SDS011;7827;53.594;9.938;2022-09-09T00:34:47;82.55;;;42.80;;
15451;SDS011;7827;53.594;9.938;2022-09-09T00:37:18;70.43;;;38.90;;
15451;SDS011;7827;53.594;9.938;2022-09-09T00:39:51;75.55;;;39.67;;
15451;SDS011;7827;53.594;9.938;2022-09-09T00:42:26;69.30;;;37.45;;
15451;SDS011;7827;53.594;9.938;2022-09-09T00:45:13;64.65;;;36.05;;
15451;SDS011;7827;53.594;9.938;2022-09-09T00:48:03;60.15;;;34.95;;
15451;SDS011;7827;53.594;9.938;2022-09-09T00:50:43;59.10;;;35.22;;
15451;SDS011;7827;53.594;9.938;2022-09-09T00:53:26;57.47;;;34.67;;
15451;SDS011;7827;53.594;9.938;2022-09-09T00:56:08;55.65;;;34.92;;
15451;SDS011;7827;53.594;9.938;2022-09-09T00:58:42;54.47;;;33.92;;
15451;SDS011;7827;53.594;9.938;2022-09-09T01:01:24;57.88;;;34.53;;
15451;SDS011;7827;53.594;9.938;2022-09-09T01:03:53;59.40;;;36.35;;
15451;SDS011;7827;53.594;9.938;2022-09-09T01:06:27;60.47;;;36.17;;
15451;SDS011;7827;53.594;9.938;2022-09-09T01:09:08;68.60;;;38.03;;
15451;SDS011;7827;53.594;9.938;2022-09-09T01:11:49;62.38;;;36.65;;
15451;SDS011;7827;53.594;9.938;2022-09-09T01:14:32;66.70;;;37.65;;
15451;SDS011;7827;53.594;9.938;2022-09-09T01:17:13;67.35;;;37.33;;
15451;SDS011;7827;53.594;9.938;2022-09-09T01:19:59;68.20;;;37.95;;
15451;SDS011;7827;53.594;9.938;2022-09-09T01:22:44;68.05;;;37.90;;
15451;SDS011;7827;53.594;9.938;2022-09-09T01:28:37;64.15;;;36.92;;
15451;SDS011;7827;53.594;9.938;2022-09-09T01:31:11;72.22;;;37.95;;
15451;SDS011;7827;53.594;9.938;2022-09-09T01:33:46;68.32;;;37.15;;
15451;SDS011;7827;53.594;9.938;2022-09-09T01:36:17;65.57;;;37.35;;
15451;SDS011;7827;53.594;9.938;2022-09-09T01:38:56;65.65;;;37.33;;
15451;SDS011;7827;53.594;9.938;2022-09-09T01:41:26;65.38;;;37.05;;
15451;SDS011;7827;53.594;9.938;2022-09-09T01:44:02;62.20;;;36.05;;
15451;SDS011;7827;53.594;9.938;2022-09-09T01:46:33;64.53;;;35.88;;
15451;SDS011;7827;53.594;9.938;2022-09-09T01:49:03;62.88;;;36.55;;
15451;SDS011;7827;53.594;9.938;2022-09-09T01:51:35;68.47;;;36.67;;
15451;SDS011;7827;53.594;9.938;2022-09-09T01:54:09;65.47;;;36.45;;
15451;SDS011;7827;53.594;9.938;2022-09-09T01:56:42;64.80;;;36.45;;
15451;SDS011;7827;53.594;9.938;2022-09-09T01:59:30;65.53;;;35.75;;
15451;SDS011;7827;53.594;9.938;2022-09-09T02:02:23;65.38;;;35.38;;
15451;SDS011;7827;53.594;9.938;2022-09-09T02:05:10;65.15;;;35.88;;
15451;SDS011;7827;53.594;9.938;2022-09-09T02:07:57;68.13;;;35.20;;
15451;SDS011;7827;53.594;9.938;2022-09-09T02:10:48;71.82;;;33.05;;
15451;SDS011;7827;53.594;9.938;2022-09-09T02:13:36;74.18;;;33.10;;
15451;SDS011;7827;53.594;9.938;2022-09-09T02:16:11;74.70;;;34.30;;
15451;SDS011;7827;53.594;9.938;2022-09-09T02:18:48;91.25;;;33.90;;
15451;SDS011;7827;53.594;9.938;2022-09-09T02:21:31;182.77;;;35.63;;
15451;SDS011;7827;53.594;9.938;2022-09-09T02:24:02;90.03;;;36.40;;
15451;SDS011;7827;53.594;9.938;2022-09-09T02:26:41;239.48;;;38.72;;
15451;SDS011;7827;53.594;9.938;2022-09-09T02:29:18;70.82;;;35.22;;
15451;SDS011;7827;53.594;9.938;2022-09-09T02:31:52;234.63;;;37.30;;
15451;SDS011;7827;53.594;9.938;2022-09-09T02:34:29;130.88;;;35.55;;
15451;SDS011;7827;53.594;9.938;2022-09-09T02:37:02;103.22;;;34.60;;
15451;SDS011;7827;53.594;9.938;2022-09-09T02:39:36;206.45;;;36.80;;
15451;SDS011;7827;53.594;9.938;2022-09-09T02:42:07;62.55;;;34.25;;
15451;SDS011;7827;53.594;9.938;2022-09-09T02:44:37;127.65;;;36.75;;
15451;SDS011;7827;53.594;9.938;2022-09-09T02:47:11;143.25;;;36.05;;
15451;SDS011;7827;53.594;9.938;2022-09-09T02:49:55;66.97;;;34.05;;
15451;SDS011;7827;53.594;9.938;2022-09-09T02:52:37;67.90;;;35.38;;
15451;SDS011;7827;53.594;9.938;2022-09-09T02:55:21;69.45;;;33.78;;
15451;SDS011;7827;53.594;9.938;2022-09-09T02:58:05;70.13;;;35.03;;
15451;SDS011;7827;53.594;9.938;2022-09-09T03:00:39;62.35;;;32.72;;
15451;SDS011;7827;53.594;9.938;2022-09-09T03:03:08;57.83;;;32.00;;
15451;SDS011;7827;53.594;9.938;2022-09-09T03:05:37;59.30;;;32.17;;
15451;SDS011;7827;53.594;9.938;2022-09-09T03:08:09;53.92;;;30.05;;
15451;SDS011;7827;53.594;9.938;2022-09-09T03:10:37;54.05;;;29.38;;
15451;SDS011;7827;53.594;9.938;2022-09-09T03:13:06;48.80;;;29.00;;
15451;SDS011;7827;53.594;9.938;2022-09-09T03:15:37;53.15;;;30.35;;
15451;SDS011;7827;53.594;9.938;2022-09-09T03:18:11;45.85;;;29.17;;
15451;SDS011;7827;53.594;9.938;2022-09-09T03:20:40;44.88;;;28.23;;
15451;SDS011;7827;53.594;9.938;2022-09-09T03:23:10;48.08;;;29.20;;
15451;SDS011;7827;53.594;9.938;2022-09-09T03:25:46;44.30;;;26.58;;
15451;SDS011;7827;53.594;9.938;2022-09-09T03:28:19;43.40;;;27.20;;
15451;SDS011;7827;53.594;9.938;2022-09-09T03:30:49;38.58;;;25.60;;
15451;SDS011;7827;53.594;9.938;2022-09-09T03:33:19;41.28;;;26.58;;
15451;SDS011;7827;53.594;9.938;2022-09-09T03:35:47;41.00;;;26.42;;
15451;SDS011;7827;53.594;9.938;2022-09-09T03:38:18;37.47;;;25.98;;
15451;SDS011;7827;53.594;9.938;2022-09-09T03:40:50;40.58;;;26.30;;
15451;SDS011;7827;53.594;9.938;2022-09-09T03:43:22;38.85;;;25.63;;
15451;SDS011;7827;53.594;9.938;2022-09-09T03:45:53;39.22;;;25.48;;
15451;SDS011;7827;53.594;9.938;2022-09-09T03:48:24;35.70;;;25.38;;
15451;SDS011;7827;53.594;9.938;2022-09-09T03:50:55;38.45;;;23.85;;
15451;SDS011;7827;53.594;9.938;2022-09-09T03:53:28;37.70;;;23.77;;
15451;SDS011;7827;53.594;9.938;2022-09-09T03:55:57;38.85;;;24.65;;
15451;SDS011;7827;53.594;9.938;2022-09-09T03:58:28;35.35;;;23.98;;
15451;SDS011;7827;53.594;9.938;2022-09-09T04:01:05;33.63;;;23.05;;
15451;SDS011;7827;53.594;9.938;2022-09-09T04:03:37;37.13;;;24.48;;
15451;SDS011;7827;53.594;9.938;2022-09-09T04:06:06;38.38;;;24.50;;
15451;SDS011;7827;53.594;9.938;2022-09-09T04:08:38;32.20;;;22.02;;
15451;SDS011;7827;53.594;9.938;2022-09-09T04:11:07;32.72;;;22.90;;
15451;SDS011;7827;53.594;9.938;2022-09-09T04:13:37;32.67;;;23.48;;
15451;SDS011;7827;53.594;9.938;2022-09-09T04:16:10;33.08;;;23.20;;
15451;SDS011;7827;53.594;9.938;2022-09-09T04:18:42;36.13;;;24.77;;
15451;SDS011;7827;53.594;9.938;2022-09-09T04:21:12;33.58;;;22.88;;
15451;SDS011;7827;53.594;9.938;2022-09-09T04:23:41;33.42;;;23.13;;
15451;SDS011;7827;53.594;9.938;2022-09-09T04:26:09;33.95;;;23.33;;
15451;SDS011;7827;53.594;9.938;2022-09-09T04:28:38;33.83;;;22.85;;
15451;SDS011;7827;53.594;9.938;2022-09-09T04:31:15;32.25;;;23.02;;
15451;SDS011;7827;53.594;9.938;2022-09-09T04:33:48;34.15;;;23.30;;
15451;SDS011;7827;53.594;9.938;2022-09-09T04:36:16;33.65;;;22.98;;
15451;SDS011;7827;53.594;9.938;2022-09-09T04:38:50;32.60;;;22.92;;
15451;SDS011;7827;53.594;9.938;2022-09-09T04:41:19;34.42;;;22.70;;
15451;SDS011;7827;53.594;9.938;2022-09-09T04:43:50;32.03;;;21.70;;
15451;SDS011;7827;53.594;9.938;2022-09-09T04:46:22;34.80;;;22.58;;
15451;SDS011;7827;53.594;9.938;2022-09-09T04:48:50;29.33;;;21.42;;
15451;SDS011;7827;53.594;9.938;2022-09-09T04:51:21;32.67;;;22.60;;
15451;SDS011;7827;53.594;9.938;2022-09-09T04:53:51;29.67;;;21.58;;
15451;SDS011;7827;53.594;9.938;2022-09-09T04:56:20;34.38;;;21.05;;
15451;SDS011;7827;53.594;9.938;2022-09-09T04:58:54;31.40;;;21.65;;
15451;SDS011;7827;53.594;9.938;2022-09-09T05:01:32;27.27;;;20.85;;
15451;SDS011;7827;53.594;9.938;2022-09-09T05:04:03;31.10;;;21.33;;
15451;SDS011;7827;53.594;9.938;2022-09-09T05:06:32;30.90;;;20.77;;
15451;SDS011;7827;53.594;9.938;2022-09-09T05:09:03;30.63;;;21.30;;
15451;SDS011;7827;53.594;9.938;2022-09-09T05:11:32;29.58;;;20.45;;
15451;SDS011;7827;53.594;9.938;2022-09-09T05:14:22;29.38;;;20.42;;
15451;SDS011;7827;53.594;9.938;2022-09-09T05:16:52;28.00;;;19.05;;
15451;SDS011;7827;53.594;9.938;2022-09-09T05:19:21;27.33;;;19.48;;
15451;SDS011;7827;53.594;9.938;2022-09-09T05:21:51;27.92;;;19.13;;
15451;SDS011;7827;53.594;9.938;2022-09-09T05:24:25;27.00;;;19.38;;
15451;SDS011;7827;53.594;9.938;2022-09-09T05:26:56;23.63;;;17.10;;
15451;SDS011;7827;53.594;9.938;2022-09-09T05:29:26;22.85;;;17.85;;
15451;SDS011;7827;53.594;9.938;2022-09-09T05:31:57;24.52;;;17.08;;
15451;SDS011;7827;53.594;9.938;2022-09-09T05:34:25;23.27;;;17.98;;
15451;SDS011;7827;53.594;9.938;2022-09-09T05:36:53;22.98;;;17.90;;
15451;SDS011;7827;53.594;9.938;2022-09-09T05:39:22;26.27;;;17.00;;
15451;SDS011;7827;53.594;9.938;2022-09-09T05:41:51;21.08;;;17.13;;
15451;SDS011;7827;53.594;9.938;2022-09-09T05:44:19;20.90;;;15.82;;
15451;SDS011;7827;53.594;9.938;2022-09-09T05:46:49;20.73;;;15.93;;
15451;SDS011;7827;53.594;9.938;2022-09-09T05:49:19;20.52;;;15.52;;
15451;SDS011;7827;53.594;9.938;2022-09-09T05:51:47;19.90;;;15.50;;
15451;SDS011;7827;53.594;9.938;2022-09-09T05:54:18;19.60;;;15.60;;
15451;SDS011;7827;53.594;9.938;2022-09-09T05:56:50;20.55;;;16.27;;
15451;SDS011;7827;53.594;9.938;2022-09-09T05:59:19;21.67;;;15.32;;
15451;SDS011;7827;53.594;9.938;2022-09-09T06:01:51;20.27;;;16.15;;
15451;SDS011;7827;53.594;9.938;2022-09-09T06:04:30;19.77;;;15.23;;
15451;SDS011;7827;53.594;9.938;2022-09-09T06:06:59;19.58;;;15.52;;
15451;SDS011;7827;53.594;9.938;2022-09-09T06:09:28;23.30;;;16.23;;
15451;SDS011;7827;53.594;9.938;2022-09-09T06:11:57;20.80;;;15.70;;
15451;SDS011;7827;53.594;9.938;2022-09-09T06:14:25;24.73;;;15.80;;
15451;SDS011;7827;53.594;9.938;2022-09-09T06:16:56;21.02;;;15.07;;
15451;SDS011;7827;53.594;9.938;2022-09-09T06:19:28;25.30;;;14.90;;
15451;SDS011;7827;53.594;9.938;2022-09-09T06:21:59;19.02;;;14.70;;
15451;SDS011;7827;53.594;9.938;2022-09-09T06:24:29;22.35;;;15.40;;
15451;SDS011;7827;53.594;9.938;2022-09-09T06:27:00;20.25;;;15.25;;
15451;SDS011;7827;53.594;9.938;2022-09-09T06:29:32;21.00;;;14.07;;
15451;SDS011;7827;53.594;9.938;2022-09-09T06:32:01;18.23;;;13.70;;
15451;SDS011;7827;53.594;9.938;2022-09-09T06:34:31;18.00;;;14.77;;
15451;SDS011;7827;53.594;9.938;2022-09-09T06:37:00;19.92;;;14.52;;
15451;SDS011;7827;53.594;9.938;2022-09-09T06:39:42;20.92;;;14.93;;
15451;SDS011;7827;53.594;9.938;2022-09-09T06:42:10;24.73;;;14.50;;
15451;SDS011;7827;53.594;9.938;2022-09-09T06:44:58;19.90;;;13.93;;
15451;SDS011;7827;53.594;9.938;2022-09-09T06:47:33;16.88;;;13.90;;
15451;SDS011;7827;53.594;9.938;2022-09-09T06:50:04;19.17;;;13.18;;
15451;SDS011;7827;53.594;9.938;2022-09-09T06:52:34;16.95;;;13.82;;
15451;SDS011;7827;53.594;9.938;2022-09-09T06:55:04;20.08;;;13.65;;
15451;SDS011;7827;53.594;9.938;2022-09-09T06:57:33;20.77;;;13.82;;
15451;SDS011;7827;53.594;9.938;2022-09-09T07:00:17;24.70;;;13.40;;
15451;SDS011;7827;53.594;9.938;2022-09-09T07:02:45;17.65;;;13.25;;
15451;SDS011;7827;53.594;9.938;2022-09-09T07:05:14;17.10;;;13.70;;
15451;SDS011;7827;53.594;9.938;2022-09-09T07:07:45;18.23;;;12.85;;
15451;SDS011;7827;53.594;9.938;2022-09-09T07:10:15;17.50;;;12.55;;
15451;SDS011;7827;53.594;9.938;2022-09-09T07:12:44;16.55;;;13.15;;
15451;SDS011;7827;53.594;9.938;2022-09-09T07:15:18;16.70;;;12.18;;
15451;SDS011;7827;53.594;9.938;2022-09-09T07:17:49;16.67;;;12.40;;
15451;SDS011;7827;53.594;9.938;2022-09-09T07:20:21;15.35;;;11.02;;
15451;SDS011;7827;53.594;9.938;2022-09-09T07:22:50;13.95;;;11.35;;
15451;SDS011;7827;53.594;9.938;2022-09-09T07:25:22;11.50;;;8.50;;
15451;SDS011;7827;53.594;9.938;2022-09-09T07:27:51;9.40;;;6.82;;
15451;SDS011;7827;53.594;9.938;2022-09-09T07:30:24;8.77;;;6.60;;
15451;SDS011;7827;53.594;9.938;2022-09-09T07:32:54;11.77;;;6.38;;
15451;SDS011;7827;53.594;9.938;2022-09-09T07:35:24;10.68;;;6.07;;
15451;SDS011;7827;53.594;9.938;2022-09-09T07:37:53;10.45;;;5.85;;
15451;SDS011;7827;53.594;9.938;2022-09-09T07:40:22;9.95;;;5.57;;
15451;SDS011;7827;53.594;9.938;2022-09-09T07:42:51;7.85;;;5.40;;
15451;SDS011;7827;53.594;9.938;2022-09-09T07:45:20;9.23;;;5.22;;
15451;SDS011;7827;53.594;9.938;2022-09-09T07:47:48;6.88;;;5.43;;
15451;SDS011;7827;53.594;9.938;2022-09-09T07:50:19;8.07;;;5.22;;
15451;SDS011;7827;53.594;9.938;2022-09-09T07:52:48;10.38;;;5.22;;
15451;SDS011;7827;53.594;9.938;2022-09-09T07:55:17;5.72;;;5.10;;
15451;SDS011;7827;53.594;9.938;2022-09-09T07:57:45;8.68;;;5.72;;
15451;SDS011;7827;53.594;9.938;2022-09-09T08:00:14;9.20;;;4.88;;
15451;SDS011;7827;53.594;9.938;2022-09-09T08:02:49;8.43;;;5.30;;
15451;SDS011;7827;53.594;9.938;2022-09-09T08:05:18;8.68;;;5.25;;
15451;SDS011;7827;53.594;9.938;2022-09-09T08:07:49;8.45;;;5.40;;
15451;SDS011;7827;53.594;9.938;2022-09-09T08:10:17;8.63;;;5.45;;
15451;SDS011;7827;53.594;9.938;2022-09-09T08:12:47;7.80;;;5.13;;
15451;SDS011;7827;53.594;9.938;2022-09-09T08:15:36;7.50;;;4.78;;
15451;SDS011;7827;53.594;9.938;2022-09-09T08:18:04;6.15;;;4.70;;
15451;SDS011;7827;53.594;9.938;2022-09-09T08:20:33;8.77;;;5.35;;
15451;SDS011;7827;53.594;9.938;2022-09-09T08:23:05;6.72;;;4.88;;
15451;SDS011;7827;53.594;9.938;2022-09-09T08:25:33;9.57;;;5.20;;
15451;SDS011;7827;53.594;9.938;2022-09-09T08:28:02;6.57;;;4.57;;
15451;SDS011;7827;53.594;9.938;2022-09-09T08:30:30;6.85;;;4.68;;
15451;SDS011;7827;53.594;9.938;2022-09-09T08:32:58;6.90;;;4.53;;
15451;SDS011;7827;53.594;9.938;2022-09-09T08:35:27;5.85;;;4.35;;
15451;SDS011;7827;53.594;9.938;2022-09-09T08:37:59;9.50;;;4.55;;
15451;SDS011;7827;53.594;9.938;2022-09-09T08:40:33;7.43;;;4.40;;
15451;SDS011;7827;53.594;9.938;2022-09-09T08:43:10;6.95;;;4.35;;
15451;SDS011;7827;53.594;9.938;2022-09-09T08:45:42;5.88;;;4.00;;
15451;SDS011;7827;53.594;9.938;2022-09-09T08:48:32;8.05;;;4.22;;
15451;SDS011;7827;53.594;9.938;2022-09-09T08:51:18;5.95;;;4.05;;
15451;SDS011;7827;53.594;9.938;2022-09-09T08:53:48;7.63;;;3.65;;
15451;SDS011;7827;53.594;9.938;2022-09-09T08:56:26;6.50;;;3.33;;
15451;SDS011;7827;53.594;9.938;2022-09-09T08:58:59;6.03;;;4.18;;
15451;SDS011;7827;53.594;9.938;2022-09-09T09:01:40;6.63;;;3.63;;
15451;SDS011;7827;53.594;9.938;2022-09-09T09:04:29;4.47;;;3.22;;
15451;SDS011;7827;53.594;9.938;2022-09-09T09:07:20;5.13;;;3.40;;
15451;SDS011;7827;53.594;9.938;2022-09-09T09:10:05;4.75;;;2.83;;
15451;SDS011;7827;53.594;9.938;2022-09-09T09:13:08;4.82;;;2.45;;
15451;SDS011;7827;53.594;9.938;2022-09-09T09:15:46;4.63;;;2.70;;
15451;SDS011;7827;53.594;9.938;2022-09-09T09:18:20;4.68;;;3.00;;
15451;SDS011;7827;53.594;9.938;2022-09-09T09:20:50;2.83;;;2.33;;
15451;SDS011;7827;53.594;9.938;2022-09-09T09:23:32;3.50;;;2.20;;
15451;SDS011;7827;53.594;9.938;2022-09-09T09:26:09;3.80;;;2.28;;
15451;SDS011;7827;53.594;9.938;2022-09-09T09:28:40;3.67;;;2.10;;
15451;SDS011;7827;53.594;9.938;2022-09-09T09:31:13;3.47;;;2.30;;
15451;SDS011;7827;53.594;9.938;2022-09-09T09:33:46;4.80;;;2.42;;
15451;SDS011;7827;53.594;9.938;2022-09-09T09:36:23;2.90;;;1.92;;
15451;SDS011;7827;53.594;9.938;2022-09-09T09:39:02;3.50;;;1.80;;
15451;SDS011;7827;53.594;9.938;2022-09-09T09:41:52;6.68;;;2.38;;
15451;SDS011;7827;53.594;9.938;2022-09-09T09:44:26;6.07;;;2.33;;
15451;SDS011;7827;53.594;9.938;2022-09-09T09:47:07;7.75;;;2.50;;
15451;SDS011;7827;53.594;9.938;2022-09-09T09:49:51;3.13;;;2.20;;
15451;SDS011;7827;53.594;9.938;2022-09-09T09:52:21;7.50;;;2.60;;
15451;SDS011;7827;53.594;9.938;2022-09-09T09:54:52;3.95;;;2.20;;
15451;SDS011;7827;53.594;9.938;2022-09-09T09:57:23;4.57;;;1.80;;
15451;SDS011;7827;53.594;9.938;2022-09-09T10:00:03;4.43;;;1.95;;
15451;SDS011;7827;53.594;9.938;2022-09-09T10:02:43;4.15;;;2.50;;
15451;SDS011;7827;53.594;9.938;2022-09-09T10:05:19;2.60;;;2.05;;
15451;SDS011;7827;53.594;9.938;2022-09-09T10:08:02;2.85;;;1.90;;
15451;SDS011;7827;53.594;9.938;2022-09-09T10:10:35;5.63;;;2.38;;
15451;SDS011;7827;53.594;9.938;2022-09-09T10:13:15;3.50;;;2.00;;
15451;SDS011;7827;53.594;9.938;2022-09-09T10:15:59;3.45;;;2.00;;
15451;SDS011;7827;53.594;9.938;2022-09-09T10:18:46;5.90;;;2.53;;
15451;SDS011;7827;53.594;9.938;2022-09-09T10:21:43;6.47;;;2.60;;
15451;SDS011;7827;53.594;9.938;2022-09-09T10:24:36;6.55;;;2.15;;
15451;SDS011;7827;53.594;9.938;2022-09-09T10:27:33;5.57;;;2.08;;
15451;SDS011;7827;53.594;9.938;2022-09-09T10:30:14;5.03;;;2.42;;
15451;SDS011;7827;53.594;9.938;2022-09-09T10:32:49;9.20;;;2.85;;
15451;SDS011;7827;53.594;9.938;2022-09-09T10:35:29;4.32;;;2.40;;
15451;SDS011;7827;53.594;9.938;2022-09-09T10:38:11;5.97;;;2.35;;
15451;SDS011;7827;53.594;9.938;2022-09-09T10:43:47;3.05;;;2.28;;
15451;SDS011;7827;53.594;9.938;2022-09-09T10:46:58;5.20;;;2.20;;
15451;SDS011;7827;53.594;9.938;2022-09-09T10:49:52;7.57;;;2.22;;
15451;SDS011;7827;53.594;9.938;2022-09-09T10:52:40;3.72;;;2.25;;
15451;SDS011;7827;53.594;9.938;2022-09-09T10:55:24;5.43;;;2.15;;
15451;SDS011;7827;53.594;9.938;2022-09-09T10:57:58;3.35;;;1.98;;
15451;SDS011;7827;53.594;9.938;2022-09-09T11:00:36;2.83;;;2.00;;
15451;SDS011;7827;53.594;9.938;2022-09-09T11:03:11;5.03;;;2.30;;
15451;SDS011;7827;53.594;9.938;2022-09-09T11:05:50;4.00;;;2.30;;
15451;SDS011;7827;53.594;9.938;2022-09-09T11:08:24;4.03;;;2.35;;
15451;SDS011;7827;53.594;9.938;2022-09-09T11:10:57;3.47;;;1.80;;
15451;SDS011;7827;53.594;9.938;2022-09-09T11:13:32;3.75;;;2.00;;
15451;SDS011;7827;53.594;9.938;2022-09-09T11:16:13;3.05;;;1.98;;
15451;SDS011;7827;53.594;9.938;2022-09-09T11:18:53;4.13;;;2.35;;
15451;SDS011;7827;53.594;9.938;2022-09-09T11:21:31;2.88;;;1.80;;
15451;SDS011;7827;53.594;9.938;2022-09-09T11:24:10;6.40;;;2.38;;
15451;SDS011;7827;53.594;9.938;2022-09-09T11:26:49;8.05;;;1.80;;
15451;SDS011;7827;53.594;9.938;2022-09-09T11:29:27;4.93;;;1.80;;
15451;SDS011;7827;53.594;9.938;2022-09-09T11:32:33;5.07;;;2.20;;
15451;SDS011;7827;53.594;9.938;2022-09-09T11:35:31;3.78;;;1.60;;
15451;SDS011;7827;53.594;9.938;2022-09-09T11:38:21;3.47;;;2.00;;
15451;SDS011;7827;53.594;9.938;2022-09-09T11:40:55;4.55;;;1.75;;
15451;SDS011;7827;53.594;9.938;2022-09-09T11:43:27;3.85;;;1.83;;
15451;SDS011;7827;53.594;9.938;2022-09-09T11:46:00;4.53;;;2.13;;
15451;SDS011;7827;53.594;9.938;2022-09-09T11:48:32;6.68;;;2.00;;
15451;SDS011;7827;53.594;9.938;2022-09-09T11:51:04;5.47;;;2.15;;
15451;SDS011;7827;53.594;9.938;2022-09-09T11:53:50;2.35;;;1.90;;
15451;SDS011;7827;53.594;9.938;2022-09-09T11:56:27;7.22;;;2.00;;
15451;SDS011;7827;53.594;9.938;2022-09-09T11:58:59;3.05;;;1.60;;
15451;SDS011;7827;53.594;9.938;2022-09-09T12:01:33;4.50;;;1.90;;
15451;SDS011;7827;53.594;9.938;2022-09-09T12:04:14;3.83;;;1.60;;
15451;SDS011;7827;53.594;9.938;2022-09-09T12:07:22;5.97;;;1.88;;
15451;SDS011;7827;53.594;9.938;2022-09-09T12:10:01;5.63;;;1.85;;
15451;SDS011;7827;53.594;9.938;2022-09-09T12:12:46;3.28;;;1.70;;
15451;SDS011;7827;53.594;9.938;2022-09-09T12:15:25;6.07;;;2.13;;
15451;SDS011;7827;53.594;9.938;2022-09-09T12:17:56;5.03;;;2.42;;
15451;SDS011;7827;53.594;9.938;2022-09-09T12:20:33;4.88;;;2.30;;
15451;SDS011;7827;53.594;9.938;2022-09-09T12:23:11;3.13;;;2.30;;
15451;SDS011;7827;53.594;9.938;2022-09-09T12:26:03;4.38;;;2.35;;
15451;SDS011;7827;53.594;9.938;2022-09-09T12:28:55;4.40;;;2.45;;
15451;SDS011;7827;53.594;9.938;2022-09-09T12:31:38;7.78;;;2.92;;
15451;SDS011;7827;53.594;9.938;2022-09-09T12:34:14;4.35;;;2.65;;
15451;SDS011;7827;53.594;9.938;2022-09-09T12:36:49;10.02;;;2.53;;
15451;SDS011;7827;53.594;9.938;2022-09-09T12:39:27;3.88;;;2.75;;
15451;SDS011;7827;53.594;9.938;2022-09-09T12:42:02;4.78;;;2.35;;
15451;SDS011;7827;53.594;9.938;2022-09-09T12:44:30;2.72;;;2.33;;
15451;SDS011;7827;53.594;9.938;2022-09-09T12:47:00;4.47;;;2.35;;
15451;SDS011;7827;53.594;9.938;2022-09-09T12:49:31;3.50;;;2.30;;
15451;SDS011;7827;53.594;9.938;2022-09-09T12:52:06;8.85;;;3.13;;
15451;SDS011;7827;53.594;9.938;2022-09-09T12:54:43;7.50;;;3.17;;
15451;SDS011;7827;53.594;9.938;2022-09-09T12:57:15;5.63;;;2.40;;
15451;SDS011;7827;53.594;9.938;2022-09-09T12:59:44;5.78;;;2.65;;
15451;SDS011;7827;53.594;9.938;2022-09-09T13:02:20;10.02;;;4.60;;
15451;SDS011;7827;53.594;9.938;2022-09-09T13:04:52;4.78;;;2.70;;
15451;SDS011;7827;53.594;9.938;2022-09-09T13:07:22;9.52;;;3.13;;
15451;SDS011;7827;53.594;9.938;2022-09-09T13:09:51;4.50;;;2.95;;
15451;SDS011;7827;53.594;9.938;2022-09-09T13:12:21;10.00;;;3.58;;
15451;SDS011;7827;53.594;9.938;2022-09-09T13:14:51;7.13;;;3.20;;
15451;SDS011;7827;53.594;9.938;2022-09-09T13:17:24;3.35;;;3.05;;
15451;SDS011;7827;53.594;9.938;2022-09-09T13:19:55;5.03;;;3.00;;
15451;SDS011;7827;53.594;9.938;2022-09-09T13:22:27;6.68;;;3.80;;
15451;SDS011;7827;53.594;9.938;2022-09-09T13:25:00;4.72;;;3.20;;
15451;SDS011;7827;53.594;9.938;2022-09-09T13:27:34;5.28;;;3.88;;
15451;SDS011;7827;53.594;9.938;2022-09-09T13:30:19;4.90;;;2.90;;
15451;SDS011;7827;53.594;9.938;2022-09-09T13:33:00;5.20;;;2.80;;
15451;SDS011;7827;53.594;9.938;2022-09-09T13:35:33;3.75;;;2.22;;
15451;SDS011;7827;53.594;9.938;2022-09-09T13:38:08;3.90;;;1.67;;
15451;SDS011;7827;53.594;9.938;2022-09-09T13:40:37;5.55;;;2.13;;
15451;SDS011;7827;53.594;9.938;2022-09-09T13:43:10;6.28;;;2.10;;
15451;SDS011;7827;53.594;9.938;2022-09-09T13:45:52;5.95;;;2.65;;
15451;SDS011;7827;53.594;9.938;2022-09-09T13:48:22;5.65;;;2.67;;
15451;SDS011;7827;53.594;9.938;2022-09-09T13:50:56;7.22;;;3.22;;
15451;SDS011;7827;53.594;9.938;2022-09-09T13:53:27;7.28;;;3.92;;
15451;SDS011;7827;53.594;9.938;2022-09-09T13:55:56;8.63;;;4.18;;
15451;SDS011;7827;53.594;9.938;2022-09-09T13:58:27;7.43;;;4.18;;
15451;SDS011;7827;53.594;9.938;2022-09-09T14:00:55;10.13;;;4.32;;
15451;SDS011;7827;53.594;9.938;2022-09-09T14:03:23;7.03;;;4.50;;
15451;SDS011;7827;53.594;9.938;2022-09-09T14:05:52;14.30;;;5.53;;
15451;SDS011;7827;53.594;9.938;2022-09-09T14:08:22;6.72;;;4.90;;
15451;SDS011;7827;53.594;9.938;2022-09-09T14:10:54;6.75;;;5.07;;
15451;SDS011;7827;53.594;9.938;2022-09-09T14:13:24;8.80;;;5.43;;
15451;SDS011;7827;53.594;9.938;2022-09-09T14:15:54;7.43;;;5.43;;
15451;SDS011;7827;53.594;9.938;2022-09-09T14:18:22;11.02;;;6.20;;
15451;SDS011;7827;53.594;9.938;2022-09-09T14:20:51;11.75;;;6.38;;
15451;SDS011;7827;53.594;9.938;2022-09-09T14:23:20;12.07;;;7.45;;
15451;SDS011;7827;53.594;9.938;2022-09-09T14:25:48;9.23;;;6.45;;
15451;SDS011;7827;53.594;9.938;2022-09-09T14:28:18;9.07;;;5.75;;
15451;SDS011;7827;53.594;9.938;2022-09-09T14:31:07;9.55;;;5.97;;
15451;SDS011;7827;53.594;9.938;2022-09-09T14:33:37;9.48;;;6.00;;
15451;SDS011;7827;53.594;9.938;2022-09-09T14:36:05;11.35;;;5.45;;
15451;SDS011;7827;53.594;9.938;2022-09-09T14:38:35;6.95;;;5.43;;
15451;SDS011;7827;53.594;9.938;2022-09-09T14:41:05;7.72;;;5.63;;
15451;SDS011;7827;53.594;9.938;2022-09-09T14:43:34;7.85;;;5.70;;
15451;SDS011;7827;53.594;9.938;2022-09-09T14:46:04;6.75;;;5.38;;
15451;SDS011;7827;53.594;9.938;2022-09-09T14:48:35;6.10;;;4.85;;
15451;SDS011;7827;53.594;9.938;2022-09-09T14:51:07;10.43;;;5.45;;
15451;SDS011;7827;53.594;9.938;2022-09-09T14:53:36;6.43;;;4.70;;
15451;SDS011;7827;53.594;9.938;2022-09-09T14:56:05;8.90;;;5.10;;
15451;SDS011;7827;53.594;9.938;2022-09-09T14:58:37;7.47;;;5.30;;
15451;SDS011;7827;53.594;9.938;2022-09-09T15:01:05;7.88;;;4.85;;
15451;SDS011;7827;53.594;9.938;2022-09-09T15:03:38;6.20;;;5.18;;
15451;SDS011;7827;53.594;9.938;2022-09-09T15:06:09;8.80;;;6.00;;
15451;SDS011;7827;53.594;9.938;2022-09-09T15:08:40;8.57;;;4.93;;
15451;SDS011;7827;53.594;9.938;2022-09-09T15:11:13;5.28;;;4.13;;
15451;SDS011;7827;53.594;9.938;2022-09-09T15:13:42;7.07;;;4.30;;
15451;SDS011;7827;53.594;9.938;2022-09-09T15:16:12;6.35;;;3.92;;
15451;SDS011;7827;53.594;9.938;2022-09-09T15:18:43;4.75;;;3.35;;
15451;SDS011;7827;53.594;9.938;2022-09-09T15:21:14;4.90;;;3.90;;
15451;SDS011;7827;53.594;9.938;2022-09-09T15:23:45;6.95;;;3.63;;
15451;SDS011;7827;53.594;9.938;2022-09-09T15:26:14;6.45;;;3.88;;
15451;SDS011;7827;53.594;9.938;2022-09-09T15:28:43;4.78;;;3.67;;
15451;SDS011;7827;53.594;9.938;2022-09-09T15:31:14;8.20;;;3.60;;
15451;SDS011;7827;53.594;9.938;2022-09-09T15:33:48;4.60;;;3.45;;
15451;SDS011;7827;53.594;9.938;2022-09-09T15:36:18;5.50;;;3.50;;
15451;SDS011;7827;53.594;9.938;2022-09-09T15:38:48;4.70;;;3.22;;